Time,TemperatureF,DewpointF,PressureIn,WindDirection,WindDirectionDegrees,WindSpeedMPH,WindSpeedGustMPH,Humidity,HourlyPrecipIn,Conditions,Clouds,dailyrainin,SoftwareType,DateUTC
2013-02-23 00:00:00,57.8,48.1,29.91,NW,326,11.0,11.0,70,0.00,,,0.00,Wunderground v.1.15,2013-02-23 07:00:00,
2013-02-23 00:05:00,57.8,47.7,29.91,NNE,21,11.0,12.0,69,0.00,,,0.00,Wunderground v.1.15,2013-02-23 07:05:00,
2013-02-23 00:15:00,57.6,47.5,29.91,North,352,12.0,18.0,69,0.00,,,0.00,Wunderground v.1.15,2013-02-23 07:15:00,
2013-02-23 00:20:00,57.5,47.4,29.91,North,360,13.0,18.0,69,0.00,,,0.00,Wunderground v.1.15,2013-02-23 07:20:00,
2013-02-23 00:25:00,57.4,47.3,29.92,NNE,19,12.0,18.0,69,0.00,,,0.00,Wunderground v.1.15,2013-02-23 07:25:00,
2013-02-23 00:30:00,57.4,47.3,29.92,North,6,11.0,18.0,69,0.00,,,0.00,Wunderground v.1.15,2013-02-23 07:30:00,
2013-02-23 00:35:00,57.3,47.2,29.92,NNE,12,11.0,18.0,69,0.00,,,0.00,Wunderground v.1.15,2013-02-23 07:35:00,
2013-02-23 00:40:00,57.2,47.1,29.92,NNE,12,11.0,18.0,69,0.00,,,0.00,Wunderground v.1.15,2013-02-23 07:40:00,
2013-02-23 00:45:00,57.2,47.5,29.92,NNE,25,12.0,18.0,70,0.00,,,0.00,Wunderground v.1.15,2013-02-23 07:45:00,
2013-02-23 00:50:00,57.0,46.9,29.92,NNE,21,12.0,12.0,69,0.00,,,0.00,Wunderground v.1.15,2013-02-23 07:50:00,
2013-02-23 00:55:00,56.8,46.7,29.91,North,356,12.0,18.0,69,0.00,,,0.00,Wunderground v.1.15,2013-02-23 07:55:00,
2013-02-23 01:00:00,56.6,46.9,29.91,NNW,341,12.0,12.0,70,0.00,,,0.00,Wunderground v.1.15,2013-02-23 08:00:00,
2013-02-23 01:05:00,56.5,46.8,29.91,NNW,332,14.0,14.0,70,0.00,,,0.00,Wunderground v.1.15,2013-02-23 08:05:00,
2013-02-23 01:10:00,56.4,46.4,29.91,North,6,13.0,21.0,69,0.00,,,0.00,Wunderground v.1.15,2013-02-23 08:10:00,
2013-02-23 01:15:00,56.3,46.6,29.91,NNE,16,12.0,21.0,70,0.00,,,0.00,Wunderground v.1.15,2013-02-23 08:15:00,
2013-02-23 01:20:00,56.2,46.5,29.91,North,9,12.0,21.0,70,0.00,,,0.00,Wunderground v.1.15,2013-02-23 08:20:00,
2013-02-23 01:25:00,56.1,46.4,29.91,NNE,13,13.0,21.0,70,0.00,,,0.00,Wunderground v.1.15,2013-02-23 08:25:00,
2013-02-23 01:30:00,55.9,45.9,29.90,North,4,14.0,21.0,69,0.00,,,0.00,Wunderground v.1.15,2013-02-23 08:30:00,
2013-02-23 01:35:00,55.7,45.7,29.90,NNE,28,14.0,21.0,69,0.00,,,0.00,Wunderground v.1.15,2013-02-23 08:35:00,
2013-02-23 01:40:00,55.6,45.6,29.91,NE,49,14.0,14.0,69,0.00,,,0.00,Wunderground v.1.15,2013-02-23 08:40:00,
2013-02-23 01:45:00,55.5,45.5,29.90,North,11,13.0,21.0,69,0.00,,,0.00,Wunderground v.1.15,2013-02-23 08:45:00,
2013-02-23 01:50:00,55.4,45.4,29.90,NNE,21,13.0,21.0,69,0.00,,,0.00,Wunderground v.1.15,2013-02-23 08:50:00,
2013-02-23 01:55:00,55.4,45.8,29.90,NNE,27,13.0,21.0,70,0.00,,,0.00,Wunderground v.1.15,2013-02-23 08:55:00,
2013-02-23 02:00:00,55.4,45.8,29.91,NE,34,11.0,21.0,70,0.00,,,0.00,Wunderground v.1.15,2013-02-23 09:00:00,
2013-02-23 02:05:00,55.4,45.8,29.91,North,4,9.0,21.0,70,0.00,,,0.00,Wunderground v.1.15,2013-02-23 09:05:00,
2013-02-23 02:15:00,55.3,45.7,29.90,NNE,26,14.0,21.0,70,0.00,,,0.00,Wunderground v.1.15,2013-02-23 09:15:00,
2013-02-23 02:20:00,55.2,45.6,29.92,NNE,21,14.0,14.0,70,0.00,,,0.00,Wunderground v.1.15,2013-02-23 09:20:00,
2013-02-23 02:25:00,55.3,45.7,29.92,NNE,13,12.0,21.0,70,0.00,,,0.00,Wunderground v.1.15,2013-02-23 09:25:00,
2013-02-23 02:30:00,55.3,45.7,29.91,North,6,11.0,11.0,70,0.00,,,0.00,Wunderground v.1.15,2013-02-23 09:30:00,
2013-02-23 02:35:00,55.3,45.7,29.92,North,1,9.0,21.0,70,0.00,,,0.00,Wunderground v.1.15,2013-02-23 09:35:00,
2013-02-23 02:45:00,55.1,45.5,29.90,SSW,195,11.0,21.0,70,0.00,,,0.00,Wunderground v.1.15,2013-02-23 09:45:00,
2013-02-23 02:50:00,55.1,45.5,29.90,NNE,13,11.0,21.0,70,0.00,,,0.00,Wunderground v.1.15,2013-02-23 09:50:00,
2013-02-23 02:55:00,55.0,45.4,29.91,North,6,10.0,21.0,70,0.00,,,0.00,Wunderground v.1.15,2013-02-23 09:55:00,
2013-02-23 03:00:00,54.9,45.3,29.91,North,4,10.0,10.0,70,0.00,,,0.00,Wunderground v.1.15,2013-02-23 10:00:00,
2013-02-23 03:05:00,54.9,45.7,29.92,North,11,9.0,15.0,71,0.00,,,0.00,Wunderground v.1.15,2013-02-23 10:05:00,
2013-02-23 03:10:00,54.8,45.2,29.91,NE,44,9.0,15.0,70,0.00,,,0.00,Wunderground v.1.15,2013-02-23 10:10:00,
2013-02-23 03:15:00,54.7,45.1,29.90,NNE,16,11.0,15.0,70,0.00,,,0.00,Wunderground v.1.15,2013-02-23 10:15:00,
2013-02-23 03:20:00,54.6,45.4,29.89,NNE,19,11.0,11.0,71,0.00,,,0.00,Wunderground v.1.15,2013-02-23 10:20:00,
2013-02-23 03:25:00,54.5,45.3,29.89,NNE,29,10.0,15.0,71,0.00,,,0.00,Wunderground v.1.15,2013-02-23 10:25:00,
2013-02-23 03:30:00,54.5,45.3,29.90,ENE,59,12.0,12.0,71,0.00,,,0.00,Wunderground v.1.15,2013-02-23 10:30:00,
2013-02-23 03:35:00,54.4,45.2,29.90,NNE,19,13.0,13.0,71,0.00,,,0.00,Wunderground v.1.15,2013-02-23 10:35:00,
2013-02-23 03:40:00,54.4,45.2,29.90,NE,39,13.0,13.0,71,0.00,,,0.00,Wunderground v.1.15,2013-02-23 10:40:00,
2013-02-23 03:45:00,54.2,45.0,29.90,NW,323,12.0,15.0,71,0.00,,,0.00,Wunderground v.1.15,2013-02-23 10:45:00,
2013-02-23 03:50:00,54.2,45.0,29.90,NNE,19,12.0,17.0,71,0.00,,,0.00,Wunderground v.1.15,2013-02-23 10:50:00,
2013-02-23 03:55:00,54.1,44.9,29.90,NNE,30,12.0,17.0,71,0.00,,,0.00,Wunderground v.1.15,2013-02-23 10:55:00,
2013-02-23 04:00:00,54.1,44.9,29.90,NNE,25,13.0,15.0,71,0.00,,,0.00,Wunderground v.1.15,2013-02-23 11:00:00,
2013-02-23 04:05:00,54.0,44.8,29.90,NNE,19,12.0,18.0,71,0.00,,,0.00,Wunderground v.1.15,2013-02-23 11:05:00,
2013-02-23 04:15:00,53.7,44.1,29.89,ENE,68,13.0,18.0,70,0.00,,,0.00,Wunderground v.1.15,2013-02-23 11:15:00,
2013-02-23 04:20:00,53.6,44.0,29.89,North,11,15.0,15.0,70,0.00,,,0.00,Wunderground v.1.15,2013-02-23 11:20:00,
2013-02-23 04:25:00,53.5,44.0,29.90,NNE,16,13.0,18.0,70,0.00,,,0.00,Wunderground v.1.15,2013-02-23 11:25:00,
2013-02-23 04:30:00,53.4,43.9,29.90,NNE,30,12.0,12.0,70,0.00,,,0.00,Wunderground v.1.15,2013-02-23 11:30:00,
2013-02-23 04:35:00,53.3,43.8,29.89,NNE,30,12.0,18.0,70,0.00,,,0.00,Wunderground v.1.15,2013-02-23 11:35:00,
2013-02-23 04:40:00,53.2,43.7,29.89,NNE,22,12.0,18.0,70,0.00,,,0.00,Wunderground v.1.15,2013-02-23 11:40:00,
2013-02-23 04:45:00,53.1,43.6,29.90,NE,36,12.0,18.0,70,0.00,,,0.00,Wunderground v.1.15,2013-02-23 11:45:00,
2013-02-23 04:50:00,53.0,43.5,29.91,North,9,11.0,18.0,70,0.00,,,0.00,Wunderground v.1.15,2013-02-23 11:50:00,
2013-02-23 04:55:00,52.9,43.4,29.91,NNE,30,10.0,18.0,70,0.00,,,0.00,Wunderground v.1.15,2013-02-23 11:55:00,
2013-02-23 05:00:00,52.9,43.4,29.91,North,354,10.0,18.0,70,0.00,,,0.00,Wunderground v.1.15,2013-02-23 12:00:00,
2013-02-23 05:05:00,52.8,43.3,29.91,North,5,11.0,18.0,70,0.00,,,0.00,Wunderground v.1.15,2013-02-23 12:05:00,
2013-02-23 05:10:00,52.7,43.2,29.91,NNE,19,12.0,17.0,70,0.00,,,0.00,Wunderground v.1.15,2013-02-23 12:10:00,
2013-02-23 05:15:00,52.6,43.5,29.91,North,357,12.0,17.0,71,0.00,,,0.00,Wunderground v.1.15,2013-02-23 12:15:00,
2013-02-23 05:20:00,52.6,43.5,29.92,NE,41,11.0,11.0,71,0.00,,,0.00,Wunderground v.1.15,2013-02-23 12:20:00,
2013-02-23 05:25:00,52.5,43.4,29.92,NNW,345,10.0,17.0,71,0.00,,,0.00,Wunderground v.1.15,2013-02-23 12:25:00,
2013-02-23 05:30:00,52.4,42.9,29.90,NNE,32,12.0,17.0,70,0.00,,,0.00,Wunderground v.1.15,2013-02-23 12:30:00,
2013-02-23 05:35:00,52.2,42.7,29.91,NNE,18,14.0,17.0,70,0.00,,,0.00,Wunderground v.1.15,2013-02-23 12:35:00,
2013-02-23 05:40:00,52.1,42.6,29.90,NE,34,13.0,17.0,70,0.00,,,0.00,Wunderground v.1.15,2013-02-23 12:40:00,
2013-02-23 05:45:00,52.0,42.5,29.90,NNE,29,13.0,21.0,70,0.00,,,0.00,Wunderground v.1.15,2013-02-23 12:45:00,
2013-02-23 05:50:00,51.9,42.4,29.91,NNE,16,12.0,21.0,70,0.00,,,0.00,Wunderground v.1.15,2013-02-23 12:50:00,
2013-02-23 05:55:00,51.8,42.7,29.91,North,4,11.0,21.0,71,0.00,,,0.00,Wunderground v.1.15,2013-02-23 12:55:00,
2013-02-23 06:00:00,51.7,42.6,29.92,NNW,339,10.0,10.0,71,0.00,,,0.00,Wunderground v.1.15,2013-02-23 13:00:00,
2013-02-23 06:05:00,51.6,42.1,29.91,NNE,26,10.0,10.0,70,0.00,,,0.00,Wunderground v.1.15,2013-02-23 13:05:00,
2013-02-23 06:15:00,51.6,42.1,29.93,NNE,13,6.0,15.0,70,0.00,,,0.00,Wunderground v.1.15,2013-02-23 13:15:00,
2013-02-23 06:20:00,51.6,42.1,29.94,NW,319,7.0,15.0,70,0.00,,,0.00,Wunderground v.1.15,2013-02-23 13:20:00,
2013-02-23 06:25:00,51.6,42.1,29.93,NE,36,8.0,15.0,70,0.00,,,0.00,Wunderground v.1.15,2013-02-23 13:25:00,
2013-02-23 06:35:00,51.6,42.1,29.94,NNW,341,9.0,15.0,70,0.00,,,0.00,Wunderground v.1.15,2013-02-23 13:35:00,
2013-02-23 06:40:00,51.7,42.2,29.94,NNE,27,10.0,10.0,70,0.00,,,0.00,Wunderground v.1.15,2013-02-23 13:40:00,
2013-02-23 06:45:00,51.7,42.2,29.95,NNW,339,9.0,15.0,70,0.00,,,0.00,Wunderground v.1.15,2013-02-23 13:45:00,
2013-02-23 06:50:00,51.7,42.2,29.96,NNE,22,9.0,9.0,70,0.00,,,0.00,Wunderground v.1.15,2013-02-23 13:50:00,
2013-02-23 06:55:00,51.9,42.8,29.96,NE,34,8.0,15.0,71,0.00,,,0.00,Wunderground v.1.15,2013-02-23 13:55:00,
2013-02-23 07:00:00,52.0,42.9,29.96,NNE,23,8.0,15.0,71,0.00,,,0.00,Wunderground v.1.15,2013-02-23 14:00:00,
2013-02-23 07:05:00,52.1,43.0,29.95,NE,34,8.0,15.0,71,0.00,,,0.00,Wunderground v.1.15,2013-02-23 14:05:00,
2013-02-23 07:15:00,52.1,43.0,29.96,NNE,30,7.0,13.0,71,0.00,,,0.00,Wunderground v.1.15,2013-02-23 14:15:00,
2013-02-23 07:20:00,52.1,43.3,29.96,NNE,29,6.0,6.0,72,0.00,,,0.00,Wunderground v.1.15,2013-02-23 14:20:00,
2013-02-23 07:25:00,52.2,43.1,29.97,NNW,336,7.0,7.0,71,0.00,,,0.00,Wunderground v.1.15,2013-02-23 14:25:00,
2013-02-23 07:30:00,52.2,43.1,29.97,NE,41,7.0,7.0,71,0.00,,,0.00,Wunderground v.1.15,2013-02-23 14:30:00,
2013-02-23 07:35:00,52.4,43.6,29.97,NNW,339,5.0,13.0,72,0.00,,,0.00,Wunderground v.1.15,2013-02-23 14:35:00,
2013-02-23 07:45:00,52.4,43.3,29.97,NNE,19,7.0,13.0,71,0.00,,,0.00,Wunderground v.1.15,2013-02-23 14:45:00,
2013-02-23 07:50:00,52.5,43.4,29.97,NE,34,8.0,13.0,71,0.00,,,0.00,Wunderground v.1.15,2013-02-23 14:50:00,
2013-02-23 07:55:00,52.8,43.7,29.97,NNE,15,8.0,13.0,71,0.00,,,0.00,Wunderground v.1.15,2013-02-23 14:55:00,
2013-02-23 08:00:00,52.8,43.7,29.97,NNE,25,8.0,13.0,71,0.00,,,0.00,Wunderground v.1.15,2013-02-23 15:00:00,
2013-02-23 08:05:00,52.9,43.7,29.97,NE,52,9.0,15.0,71,0.00,,,0.00,Wunderground v.1.15,2013-02-23 15:05:00,
2013-02-23 08:10:00,53.2,44.0,29.97,NNE,32,9.0,15.0,71,0.00,,,0.00,Wunderground v.1.15,2013-02-23 15:10:00,
2013-02-23 08:20:00,53.3,43.8,29.97,NNE,25,7.0,15.0,70,0.00,,,0.00,Wunderground v.1.15,2013-02-23 15:20:00,
2013-02-23 08:25:00,53.4,44.2,29.98,WNW,302,7.0,15.0,71,0.00,,,0.00,Wunderground v.1.15,2013-02-23 15:25:00,
2013-02-23 08:30:00,53.4,44.2,29.98,NNW,340,7.0,7.0,71,0.00,,,0.00,Wunderground v.1.15,2013-02-23 15:30:00,
2013-02-23 08:35:00,53.6,44.0,29.98,NNW,339,7.0,8.0,70,0.00,,,0.00,Wunderground v.1.15,2013-02-23 15:35:00,
2013-02-23 08:40:00,53.8,44.2,29.98,NNW,339,7.0,7.0,70,0.00,,,0.00,Wunderground v.1.15,2013-02-23 15:40:00,
2013-02-23 08:45:00,54.0,44.4,29.98,NE,50,7.0,15.0,70,0.00,,,0.00,Wunderground v.1.15,2013-02-23 15:45:00,
2013-02-23 08:50:00,54.6,44.6,29.98,NW,319,6.0,15.0,69,0.00,,,0.00,Wunderground v.1.15,2013-02-23 15:50:00,
2013-02-23 08:55:00,55.0,45.0,29.98,NNE,27,7.0,15.0,69,0.00,,,0.00,Wunderground v.1.15,2013-02-23 15:55:00,
2013-02-23 09:00:00,55.2,45.2,29.98,WNW,285,8.0,8.0,69,0.00,,,0.00,Wunderground v.1.15,2013-02-23 16:00:00,
2013-02-23 09:05:00,55.7,45.7,29.98,NW,315,7.0,12.0,69,0.00,,,0.00,Wunderground v.1.15,2013-02-23 16:05:00,
2013-02-23 09:10:00,55.5,45.1,29.98,NNW,329,8.0,8.0,68,0.00,,,0.00,Wunderground v.1.15,2013-02-23 16:10:00,
2013-02-23 09:15:00,55.4,45.0,29.98,West,271,8.0,9.0,68,0.00,,,0.00,Wunderground v.1.15,2013-02-23 16:15:00,
2013-02-23 09:20:00,55.3,45.3,29.99,NW,323,8.0,8.0,69,0.00,,,0.00,Wunderground v.1.15,2013-02-23 16:20:00,
2013-02-23 09:25:00,55.6,45.6,29.99,NNW,328,7.0,9.0,69,0.00,,,0.00,Wunderground v.1.15,2013-02-23 16:25:00,
2013-02-23 09:30:00,55.5,45.5,30.00,WNW,282,8.0,12.0,69,0.00,,,0.00,Wunderground v.1.15,2013-02-23 16:30:00,
2013-02-23 09:35:00,55.7,45.7,30.00,NNW,339,8.0,12.0,69,0.00,,,0.00,Wunderground v.1.15,2013-02-23 16:35:00,
2013-02-23 09:40:00,56.0,46.0,30.00,NW,316,8.0,12.0,69,0.00,,,0.00,Wunderground v.1.15,2013-02-23 16:40:00,
2013-02-23 09:45:00,56.1,45.3,30.00,NW,305,9.0,12.0,67,0.00,,,0.00,Wunderground v.1.15,2013-02-23 16:45:00,
2013-02-23 09:50:00,55.7,45.3,30.00,NNW,328,9.0,12.0,68,0.00,,,0.00,Wunderground v.1.15,2013-02-23 16:50:00,
2013-02-23 09:55:00,55.8,45.4,29.99,NW,323,8.0,12.0,68,0.00,,,0.00,Wunderground v.1.15,2013-02-23 16:55:00,
2013-02-23 10:00:00,56.0,45.6,30.00,NW,319,9.0,9.0,68,0.00,,,0.00,Wunderground v.1.15,2013-02-23 17:00:00,
2013-02-23 10:05:00,56.7,45.9,30.00,NW,325,10.0,15.0,67,0.00,,,0.00,Wunderground v.1.15,2013-02-23 17:05:00,
2013-02-23 10:10:00,56.9,46.1,30.00,NW,324,10.0,10.0,67,0.00,,,0.00,Wunderground v.1.15,2013-02-23 17:10:00,
2013-02-23 10:15:00,57.9,46.6,29.99,NW,314,11.0,11.0,66,0.00,,,0.00,Wunderground v.1.15,2013-02-23 17:15:00,
2013-02-23 10:20:00,58.4,47.1,29.99,North,351,10.0,10.0,66,0.00,,,0.00,Wunderground v.1.15,2013-02-23 17:20:00,
2013-02-23 10:25:00,59.3,47.9,29.99,NW,309,10.0,13.0,66,0.00,,,0.00,Wunderground v.1.15,2013-02-23 17:25:00,
2013-02-23 10:30:00,59.9,48.1,29.99,NNW,348,10.0,14.0,65,0.00,,,0.00,Wunderground v.1.15,2013-02-23 17:30:00,
2013-02-23 10:35:00,60.1,48.3,29.98,West,277,10.0,14.0,65,0.00,,,0.00,Wunderground v.1.15,2013-02-23 17:35:00,
2013-02-23 10:40:00,60.3,48.5,29.98,North,351,10.0,13.0,65,0.00,,,0.00,Wunderground v.1.15,2013-02-23 17:40:00,
2013-02-23 10:45:00,60.2,48.8,29.98,North,349,11.0,13.0,66,0.00,,,0.00,Wunderground v.1.15,2013-02-23 17:45:00,
2013-02-23 10:50:00,60.7,49.7,29.97,NNW,330,11.0,13.0,67,0.00,,,0.00,Wunderground v.1.15,2013-02-23 17:50:00,
2013-02-23 10:55:00,61.5,50.4,29.97,NW,308,10.0,13.0,67,0.00,,,0.00,Wunderground v.1.15,2013-02-23 17:55:00,
2013-02-23 11:00:00,62.0,50.1,29.96,NNW,338,9.0,14.0,65,0.00,,,0.00,Wunderground v.1.15,2013-02-23 18:00:00,
2013-02-23 11:05:00,62.0,49.3,29.96,NNE,16,9.0,17.0,63,0.00,,,0.00,Wunderground v.1.15,2013-02-23 18:05:00,
2013-02-23 11:10:00,62.5,50.2,29.95,NW,316,9.0,17.0,64,0.00,,,0.00,Wunderground v.1.15,2013-02-23 18:10:00,
2013-02-23 11:15:00,62.2,49.9,29.96,NW,314,9.0,17.0,64,0.00,,,0.00,Wunderground v.1.15,2013-02-23 18:15:00,
2013-02-23 11:20:00,61.8,49.1,29.96,NW,309,10.0,17.0,63,0.00,,,0.00,Wunderground v.1.15,2013-02-23 18:20:00,
2013-02-23 11:25:00,62.3,49.1,29.95,West,269,10.0,17.0,62,0.00,,,0.00,Wunderground v.1.15,2013-02-23 18:25:00,
2013-02-23 11:35:00,62.4,49.6,29.95,NW,318,9.0,17.0,63,0.00,,,0.00,Wunderground v.1.15,2013-02-23 18:35:00,
2013-02-23 11:40:00,62.4,49.6,29.95,NNW,341,9.0,17.0,63,0.00,,,0.00,Wunderground v.1.15,2013-02-23 18:40:00,
2013-02-23 11:45:00,63.0,49.8,29.94,WNW,290,9.0,17.0,62,0.00,,,0.00,Wunderground v.1.15,2013-02-23 18:45:00,
2013-02-23 11:50:00,63.3,51.3,29.94,West,259,9.0,17.0,65,0.00,,,0.00,Wunderground v.1.15,2013-02-23 18:50:00,
2013-02-23 11:55:00,63.9,51.1,29.94,WNW,291,9.0,17.0,63,0.00,,,0.00,Wunderground v.1.15,2013-02-23 18:55:00,
2013-02-23 12:00:00,64.1,51.2,29.94,West,265,8.0,8.0,63,0.00,,,0.00,Wunderground v.1.15,2013-02-23 19:00:00,
2013-02-23 12:05:00,64.5,51.6,29.93,WNW,296,7.0,13.0,63,0.00,,,0.00,Wunderground v.1.15,2013-02-23 19:05:00,
2013-02-23 12:15:00,64.7,51.8,29.93,NW,319,8.0,13.0,63,0.00,,,0.00,Wunderground v.1.15,2013-02-23 19:15:00,
2013-02-23 12:20:00,64.9,51.6,29.92,NNW,328,9.0,13.0,62,0.00,,,0.00,Wunderground v.1.15,2013-02-23 19:20:00,
2013-02-23 12:25:00,65.2,52.7,29.92,NW,315,9.0,13.0,64,0.00,,,0.00,Wunderground v.1.15,2013-02-23 19:25:00,
2013-02-23 12:30:00,65.8,52.9,29.92,NNW,333,9.0,9.0,63,0.00,,,0.00,Wunderground v.1.15,2013-02-23 19:30:00,
2013-02-23 12:35:00,66.0,52.6,29.92,NNW,343,9.0,13.0,62,0.00,,,0.00,Wunderground v.1.15,2013-02-23 19:35:00,
2013-02-23 12:40:00,66.3,52.9,29.92,NNW,341,8.0,8.0,62,0.00,,,0.00,Wunderground v.1.15,2013-02-23 19:40:00,
2013-02-23 12:45:00,66.5,52.6,29.92,WSW,255,7.0,13.0,61,0.00,,,0.00,Wunderground v.1.15,2013-02-23 19:45:00,
2013-02-23 12:50:00,66.6,52.7,29.92,WNW,291,7.0,13.0,61,0.00,,,0.00,Wunderground v.1.15,2013-02-23 19:50:00,
2013-02-23 12:55:00,66.6,53.2,29.91,West,281,7.0,13.0,62,0.00,,,0.00,Wunderground v.1.15,2013-02-23 19:55:00,
2013-02-23 13:00:00,66.7,52.8,29.91,NNW,338,6.0,6.0,61,0.00,,,0.00,Wunderground v.1.15,2013-02-23 20:00:00,
2013-02-23 13:05:00,67.0,53.5,29.91,NW,321,6.0,13.0,62,0.00,,,0.00,Wunderground v.1.15,2013-02-23 20:05:00,
2013-02-23 13:10:00,66.9,53.5,29.91,NNW,330,7.0,7.0,62,0.00,,,0.00,Wunderground v.1.15,2013-02-23 20:10:00,
2013-02-23 13:15:00,66.8,53.8,29.90,NW,315,7.0,9.0,63,0.00,,,0.00,Wunderground v.1.15,2013-02-23 20:15:00,
2013-02-23 13:20:00,66.8,53.4,29.90,NNW,341,7.0,7.0,62,0.00,,,0.00,Wunderground v.1.15,2013-02-23 20:20:00,
2013-02-23 13:25:00,67.2,53.7,29.89,NW,307,5.0,13.0,62,0.00,,,0.00,Wunderground v.1.15,2013-02-23 20:25:00,
2013-02-23 13:30:00,67.3,53.4,29.89,NW,316,5.0,13.0,61,0.00,,,0.00,Wunderground v.1.15,2013-02-23 20:30:00,
2013-02-23 13:35:00,66.9,53.5,29.89,NNW,341,5.0,13.0,62,0.00,,,0.00,Wunderground v.1.15,2013-02-23 20:35:00,
2013-02-23 13:40:00,66.8,52.9,29.89,West,276,5.0,5.0,61,0.00,,,0.00,Wunderground v.1.15,2013-02-23 20:40:00,
2013-02-23 13:45:00,66.7,53.3,29.89,WNW,291,4.0,13.0,62,0.00,,,0.00,Wunderground v.1.15,2013-02-23 20:45:00,
2013-02-23 13:50:00,66.5,52.6,29.89,NW,309,4.0,13.0,61,0.00,,,0.00,Wunderground v.1.15,2013-02-23 20:50:00,
2013-02-23 14:00:00,67.2,52.8,29.88,NW,321,6.0,13.0,60,0.00,,,0.00,Wunderground v.1.15,2013-02-23 21:00:00,
2013-02-23 14:05:00,67.0,51.7,29.88,North,4,7.0,13.0,58,0.00,,,0.00,Wunderground v.1.15,2013-02-23 21:05:00,
2013-02-23 14:10:00,66.8,51.5,29.88,NW,314,7.0,11.0,58,0.00,,,0.00,Wunderground v.1.15,2013-02-23 21:10:00,
2013-02-23 14:15:00,66.8,51.1,29.88,WNW,295,6.0,11.0,57,0.00,,,0.00,Wunderground v.1.15,2013-02-23 21:15:00,
2013-02-23 14:20:00,66.9,50.7,29.88,NW,319,5.0,11.0,56,0.00,,,0.00,Wunderground v.1.15,2013-02-23 21:20:00,
2013-02-23 14:25:00,66.9,50.7,29.87,NW,318,6.0,11.0,56,0.00,,,0.00,Wunderground v.1.15,2013-02-23 21:25:00,
2013-02-23 14:30:00,66.9,50.7,29.88,NW,323,6.0,12.0,56,0.00,,,0.00,Wunderground v.1.15,2013-02-23 21:30:00,
2013-02-23 14:35:00,66.9,50.2,29.87,NNW,347,7.0,12.0,55,0.00,,,0.00,Wunderground v.1.15,2013-02-23 21:35:00,
2013-02-23 14:40:00,67.2,51.4,29.87,North,4,6.0,6.0,57,0.00,,,0.00,Wunderground v.1.15,2013-02-23 21:40:00,
2013-02-23 14:45:00,67.4,51.2,29.87,NNE,26,5.0,8.0,56,0.00,,,0.00,Wunderground v.1.15,2013-02-23 21:45:00,
2013-02-23 14:50:00,67.7,50.9,29.86,North,11,6.0,11.0,55,0.00,,,0.00,Wunderground v.1.15,2013-02-23 21:50:00,
2013-02-23 14:55:00,67.8,50.5,29.86,North,8,7.0,11.0,54,0.00,,,0.00,Wunderground v.1.15,2013-02-23 21:55:00,
2013-02-23 15:00:00,67.8,50.5,29.87,NW,325,7.0,11.0,54,0.00,,,0.00,Wunderground v.1.15,2013-02-23 22:00:00,
2013-02-23 15:05:00,67.7,50.9,29.86,North,4,7.0,11.0,55,0.00,,,0.00,Wunderground v.1.15,2013-02-23 22:05:00,
2013-02-23 15:10:00,67.5,50.8,29.87,NNW,335,7.0,7.0,55,0.00,,,0.00,Wunderground v.1.15,2013-02-23 22:10:00,
2013-02-23 15:15:00,67.4,51.2,29.87,NNW,330,6.0,11.0,56,0.00,,,0.00,Wunderground v.1.15,2013-02-23 22:15:00,
2013-02-23 15:20:00,67.4,53.0,29.86,NNE,18,4.0,4.0,60,0.00,,,0.00,Wunderground v.1.15,2013-02-23 22:20:00,
2013-02-23 15:25:00,66.8,53.8,29.86,NE,47,4.0,11.0,63,0.00,,,0.00,Wunderground v.1.15,2013-02-23 22:25:00,
2013-02-23 15:35:00,66.2,53.2,29.86,East,79,5.0,11.0,63,0.00,,,0.00,Wunderground v.1.15,2013-02-23 22:35:00,
2013-02-23 15:40:00,66.2,53.7,29.86,NE,40,5.0,11.0,64,0.00,,,0.00,Wunderground v.1.15,2013-02-23 22:40:00,
2013-02-23 15:45:00,66.1,53.6,29.85,ENE,61,6.0,11.0,64,0.00,,,0.00,Wunderground v.1.15,2013-02-23 22:45:00,
2013-02-23 15:50:00,66.1,53.6,29.85,NE,47,6.0,6.0,64,0.00,,,0.00,Wunderground v.1.15,2013-02-23 22:50:00,
2013-02-23 15:55:00,65.8,54.5,29.86,ENE,65,5.0,11.0,67,0.00,,,0.00,Wunderground v.1.15,2013-02-23 22:55:00,
2013-02-23 16:00:00,65.5,55.1,29.86,ENE,65,5.0,5.0,69,0.00,,,0.00,Wunderground v.1.15,2013-02-23 23:00:00,
2013-02-23 16:05:00,65.1,55.1,29.85,ENE,63,5.0,6.0,70,0.00,,,0.00,Wunderground v.1.15,2013-02-23 23:05:00,
2013-02-23 16:10:00,65.0,55.4,29.85,ENE,65,5.0,8.0,71,0.00,,,0.00,Wunderground v.1.15,2013-02-23 23:10:00,
2013-02-23 16:15:00,65.0,55.4,29.86,NE,41,5.0,8.0,71,0.00,,,0.00,Wunderground v.1.15,2013-02-23 23:15:00,
2013-02-23 16:20:00,65.1,55.8,29.86,NE,56,6.0,8.0,72,0.00,,,0.00,Wunderground v.1.15,2013-02-23 23:20:00,
2013-02-23 16:25:00,65.2,51.4,29.85,NNE,30,6.0,8.0,61,0.00,,,0.00,Wunderground v.1.15,2013-02-23 23:25:00,
2013-02-23 16:30:00,65.5,50.8,29.85,NE,47,6.0,6.0,59,0.00,,,0.00,Wunderground v.1.15,2013-02-23 23:30:00,
2013-02-23 16:35:00,65.6,52.7,29.85,NE,43,6.0,8.0,63,0.00,,,0.00,Wunderground v.1.15,2013-02-23 23:35:00,
2013-02-23 16:40:00,65.5,53.8,29.86,NE,39,6.0,8.0,66,0.00,,,0.00,Wunderground v.1.15,2013-02-23 23:40:00,
2013-02-23 16:45:00,65.3,53.2,29.86,ENE,65,6.0,8.0,65,0.00,,,0.00,Wunderground v.1.15,2013-02-23 23:45:00,
2013-02-23 16:50:00,64.6,56.1,29.87,SSE,156,5.0,8.0,74,0.00,,,0.00,Wunderground v.1.15,2013-02-23 23:50:00,
2013-02-23 16:55:00,64.0,55.9,29.87,ESE,106,4.0,8.0,75,0.00,,,0.00,Wunderground v.1.15,2013-02-23 23:55:00,
2013-02-23 17:00:00,63.5,55.8,29.87,East,84,4.0,4.0,76,0.00,,,0.00,Wunderground v.1.15,2013-02-24 00:00:00,
2013-02-23 17:05:00,63.5,56.2,29.87,East,84,3.0,9.0,77,0.00,,,0.00,Wunderground v.1.15,2013-02-24 00:05:00,
2013-02-23 17:10:00,63.2,55.9,29.87,SE,124,3.0,9.0,77,0.00,,,0.00,Wunderground v.1.15,2013-02-24 00:10:00,
2013-02-23 17:15:00,63.0,56.0,29.87,ESE,117,4.0,9.0,78,0.00,,,0.00,Wunderground v.1.15,2013-02-24 00:15:00,
2013-02-23 17:20:00,62.9,56.3,29.87,SE,128,4.0,9.0,79,0.00,,,0.00,Wunderground v.1.15,2013-02-24 00:20:00,
2013-02-23 17:25:00,62.8,56.5,29.87,SE,142,4.0,9.0,80,0.00,,,0.00,Wunderground v.1.15,2013-02-24 00:25:00,
2013-02-23 17:30:00,62.6,56.3,29.87,ESE,106,4.0,9.0,80,0.00,,,0.00,Wunderground v.1.15,2013-02-24 00:30:00,
2013-02-23 17:35:00,62.6,56.7,29.87,ESE,115,4.0,9.0,81,0.00,,,0.00,Wunderground v.1.15,2013-02-24 00:35:00,
2013-02-23 17:40:00,62.6,56.7,29.87,East,82,3.0,9.0,81,0.00,,,0.00,Wunderground v.1.15,2013-02-24 00:40:00,
2013-02-23 17:45:00,62.5,56.6,29.87,East,91,3.0,9.0,81,0.00,,,0.00,Wunderground v.1.15,2013-02-24 00:45:00,
2013-02-23 17:50:00,62.4,56.5,29.87,East,84,3.0,9.0,81,0.00,,,0.00,Wunderground v.1.15,2013-02-24 00:50:00,
2013-02-23 17:55:00,62.4,56.8,29.87,East,79,4.0,9.0,82,0.00,,,0.00,Wunderground v.1.15,2013-02-24 00:55:00,
2013-02-23 18:00:00,62.4,56.5,29.87,ENE,68,3.0,3.0,81,0.00,,,0.00,Wunderground v.1.15,2013-02-24 01:00:00,
2013-02-23 18:05:00,62.4,56.8,29.87,ENE,61,3.0,6.0,82,0.00,,,0.00,Wunderground v.1.15,2013-02-24 01:05:00,
2013-02-23 18:15:00,62.4,57.2,29.88,NE,47,2.0,3.0,83,0.00,,,0.00,Wunderground v.1.15,2013-02-24 01:15:00,
2013-02-23 18:20:00,62.3,57.1,29.88,ESE,105,2.0,2.0,83,0.00,,,0.00,Wunderground v.1.15,2013-02-24 01:20:00,
2013-02-23 18:25:00,62.3,57.1,29.88,ESE,115,2.0,3.0,83,0.00,,,0.00,Wunderground v.1.15,2013-02-24 01:25:00,
2013-02-23 18:30:00,62.3,57.4,29.88,SE,139,2.0,6.0,84,0.00,,,0.00,Wunderground v.1.15,2013-02-24 01:30:00,
2013-02-23 18:35:00,62.2,57.3,29.88,ESE,113,2.0,6.0,84,0.00,,,0.00,Wunderground v.1.15,2013-02-24 01:35:00,
2013-02-23 18:40:00,62.2,57.3,29.88,ESE,118,2.0,6.0,84,0.00,,,0.00,Wunderground v.1.15,2013-02-24 01:40:00,
2013-02-23 18:45:00,62.2,57.6,29.89,SE,132,4.0,6.0,85,0.00,,,0.00,Wunderground v.1.15,2013-02-24 01:45:00,
2013-02-23 18:50:00,61.9,57.3,29.89,ESE,111,5.0,6.0,85,0.00,,,0.00,Wunderground v.1.15,2013-02-24 01:50:00,
2013-02-23 18:55:00,61.6,57.0,29.89,East,98,5.0,6.0,85,0.00,,,0.00,Wunderground v.1.15,2013-02-24 01:55:00,
2013-02-23 19:00:00,61.6,57.4,29.89,SE,124,5.0,6.0,86,0.00,,,0.00,Wunderground v.1.15,2013-02-24 02:00:00,
2013-02-23 19:05:00,61.4,57.2,29.89,ESE,103,5.0,10.0,86,0.00,,,0.00,Wunderground v.1.15,2013-02-24 02:05:00,
2013-02-23 19:15:00,61.4,57.2,29.90,ESE,105,3.0,10.0,86,0.00,,,0.00,Wunderground v.1.15,2013-02-24 02:15:00,
2013-02-23 19:20:00,61.3,56.8,29.90,ENE,60,3.0,3.0,85,0.00,,,0.00,Wunderground v.1.15,2013-02-24 02:20:00,
2013-02-23 19:25:00,61.2,57.0,29.90,East,84,3.0,10.0,86,0.00,,,0.00,Wunderground v.1.15,2013-02-24 02:25:00,
2013-02-23 19:30:00,61.2,57.0,29.90,East,91,3.0,3.0,86,0.00,,,0.00,Wunderground v.1.15,2013-02-24 02:30:00,
2013-02-23 19:35:00,61.3,57.1,29.90,ESE,115,4.0,5.0,86,0.00,,,0.00,Wunderground v.1.15,2013-02-24 02:35:00,
2013-02-23 19:40:00,61.3,57.4,29.90,ESE,108,5.0,10.0,87,0.00,,,0.00,Wunderground v.1.15,2013-02-24 02:40:00,
2013-02-23 19:45:00,61.2,57.3,29.90,ESE,102,4.0,10.0,87,0.00,,,0.00,Wunderground v.1.15,2013-02-24 02:45:00,
2013-02-23 19:50:00,61.1,57.2,29.91,East,85,4.0,4.0,87,0.00,,,0.00,Wunderground v.1.15,2013-02-24 02:50:00,
2013-02-23 19:55:00,61.0,57.1,29.91,ESE,117,4.0,10.0,87,0.00,,,0.00,Wunderground v.1.15,2013-02-24 02:55:00,
2013-02-23 20:00:00,60.9,57.0,29.90,East,85,3.0,3.0,87,0.00,,,0.00,Wunderground v.1.15,2013-02-24 03:00:00,
2013-02-23 20:05:00,60.8,56.9,29.90,ESE,122,2.0,5.0,87,0.00,,,0.00,Wunderground v.1.15,2013-02-24 03:05:00,
2013-02-23 20:10:00,60.8,56.9,29.90,East,85,2.0,5.0,87,0.00,,,0.00,Wunderground v.1.15,2013-02-24 03:10:00,
2013-02-23 20:15:00,60.8,56.9,29.91,SE,129,2.0,5.0,87,0.00,,,0.00,Wunderground v.1.15,2013-02-24 03:15:00,
2013-02-23 20:20:00,60.8,56.9,29.91,ESE,109,2.0,5.0,87,0.00,,,0.00,Wunderground v.1.15,2013-02-24 03:20:00,
2013-02-23 20:30:00,60.7,57.1,29.91,NE,43,3.0,5.0,88,0.00,,,0.00,Wunderground v.1.15,2013-02-24 03:30:00,
2013-02-23 20:35:00,60.8,57.2,29.90,ENE,64,3.0,5.0,88,0.00,,,0.00,Wunderground v.1.15,2013-02-24 03:35:00,
2013-02-23 20:40:00,60.9,57.3,29.90,ENE,57,4.0,5.0,88,0.00,,,0.00,Wunderground v.1.15,2013-02-24 03:40:00,
2013-02-23 20:45:00,60.8,57.2,29.91,ENE,68,4.0,5.0,88,0.00,,,0.00,Wunderground v.1.15,2013-02-24 03:45:00,
2013-02-23 20:50:00,60.8,57.2,29.91,ENE,69,4.0,4.0,88,0.00,,,0.00,Wunderground v.1.15,2013-02-24 03:50:00,
2013-02-23 20:55:00,60.9,57.3,29.91,East,92,4.0,5.0,88,0.00,,,0.00,Wunderground v.1.15,2013-02-24 03:55:00,
2013-02-23 21:05:00,60.9,57.0,29.91,ENE,63,4.0,7.0,87,0.00,,,0.00,Wunderground v.1.15,2013-02-24 04:05:00,
2013-02-23 21:10:00,60.8,56.9,29.91,ENE,61,4.0,4.0,87,0.00,,,0.00,Wunderground v.1.15,2013-02-24 04:10:00,
2013-02-23 21:15:00,60.9,57.0,29.91,ENE,65,4.0,7.0,87,0.00,,,0.00,Wunderground v.1.15,2013-02-24 04:15:00,
2013-02-23 21:20:00,60.9,56.7,29.90,ENE,75,4.0,7.0,86,0.00,,,0.00,Wunderground v.1.15,2013-02-24 04:20:00,
2013-02-23 21:30:00,60.9,56.7,29.91,ENE,70,4.0,4.0,86,0.00,,,0.00,Wunderground v.1.15,2013-02-24 04:30:00,
2013-02-23 21:35:00,60.8,56.3,29.91,ENE,72,3.0,7.0,85,0.00,,,0.00,Wunderground v.1.15,2013-02-24 04:35:00,
2013-02-23 21:40:00,60.7,56.2,29.90,ENE,68,2.0,2.0,85,0.00,,,0.00,Wunderground v.1.15,2013-02-24 04:40:00,
2013-02-23 21:45:00,60.3,55.8,29.90,ESE,112,1.0,7.0,85,0.00,,,0.00,Wunderground v.1.15,2013-02-24 04:45:00,
2013-02-23 21:50:00,59.8,55.3,29.90,East,96,0.0,7.0,85,0.00,,,0.00,Wunderground v.1.15,2013-02-24 04:50:00,
2013-02-23 21:55:00,59.4,55.2,29.89,ENE,72,1.0,7.0,86,0.00,,,0.00,Wunderground v.1.15,2013-02-24 04:55:00,
2013-02-23 22:00:00,59.4,55.5,29.89,ENE,71,1.0,7.0,87,0.00,,,0.00,Wunderground v.1.15,2013-02-24 05:00:00,
2013-02-23 22:05:00,59.4,55.5,29.89,ENE,61,1.0,7.0,87,0.00,,,0.00,Wunderground v.1.15,2013-02-24 05:05:00,
2013-02-23 22:10:00,59.3,55.4,29.89,ENE,61,1.0,1.0,87,0.00,,,0.00,Wunderground v.1.15,2013-02-24 05:10:00,
2013-02-23 22:15:00,58.9,55.0,29.89,NNE,25,0.0,3.0,87,0.00,,,0.00,Wunderground v.1.15,2013-02-24 05:15:00,
2013-02-23 22:20:00,58.6,54.7,29.89,ENE,64,1.0,3.0,87,0.00,,,0.00,Wunderground v.1.15,2013-02-24 05:20:00,
2013-02-23 22:25:00,58.4,54.9,29.89,ENE,65,1.0,3.0,88,0.00,,,0.00,Wunderground v.1.15,2013-02-24 05:25:00,
2013-02-23 22:30:00,58.5,55.0,29.89,ENE,63,1.0,1.0,88,0.00,,,0.00,Wunderground v.1.15,2013-02-24 05:30:00,
2013-02-23 22:35:00,58.3,54.8,29.89,ENE,63,0.0,3.0,88,0.00,,,0.00,Wunderground v.1.15,2013-02-24 05:35:00,
2013-02-23 22:40:00,58.1,54.6,29.89,ENE,64,0.0,3.0,88,0.00,,,0.00,Wunderground v.1.15,2013-02-24 05:40:00,
2013-02-23 22:45:00,58.0,54.8,29.89,ENE,60,1.0,3.0,89,0.00,,,0.00,Wunderground v.1.15,2013-02-24 05:45:00,
2013-02-23 22:50:00,58.0,54.8,29.89,East,82,1.0,3.0,89,0.00,,,0.00,Wunderground v.1.15,2013-02-24 05:50:00,
2013-02-23 22:55:00,58.0,54.8,29.89,ENE,72,1.0,3.0,89,0.00,,,0.00,Wunderground v.1.15,2013-02-24 05:55:00,
2013-02-23 23:00:00,57.8,54.6,29.89,ENE,72,1.0,3.0,89,0.00,,,0.00,Wunderground v.1.15,2013-02-24 06:00:00,
2013-02-23 23:05:00,57.9,54.7,29.89,ENE,68,1.0,3.0,89,0.00,,,0.00,Wunderground v.1.15,2013-02-24 06:05:00,
2013-02-23 23:10:00,57.7,54.2,29.89,NE,43,1.0,2.0,88,0.00,,,0.00,Wunderground v.1.15,2013-02-24 06:10:00,
2013-02-23 23:15:00,57.6,54.4,29.88,ENE,58,1.0,2.0,89,0.00,,,0.00,Wunderground v.1.15,2013-02-24 06:15:00,
2013-02-23 23:20:00,57.8,54.6,29.88,East,85,2.0,2.0,89,0.00,,,0.00,Wunderground v.1.15,2013-02-24 06:20:00,
2013-02-23 23:25:00,57.8,54.6,29.88,ENE,58,2.0,2.0,89,0.00,,,0.00,Wunderground v.1.15,2013-02-24 06:25:00,
2013-02-23 23:30:00,57.7,54.5,29.88,ENE,61,2.0,2.0,89,0.00,,,0.00,Wunderground v.1.15,2013-02-24 06:30:00,
2013-02-23 23:35:00,57.6,54.4,29.88,NE,39,2.0,2.0,89,0.00,,,0.00,Wunderground v.1.15,2013-02-24 06:35:00,
2013-02-23 23:40:00,57.5,54.3,29.88,NE,49,2.0,3.0,89,0.00,,,0.00,Wunderground v.1.15,2013-02-24 06:40:00,
2013-02-23 23:50:00,57.7,54.5,29.88,ENE,71,2.0,2.0,89,0.00,,,0.00,Wunderground v.1.15,2013-02-24 06:50:00,
2013-02-23 23:55:00,57.5,54.3,29.88,ENE,58,3.0,5.0,89,0.00,,,0.00,Wunderground v.1.15,2013-02-24 06:55:00,